

Wyoming Mesonet
Water Resources Data System and State Climate Office
SEO WACNet, UW USACE UMRB, USDA-ARS, BLM
| Wind | Soil | |||||||||||||||||||
| Temp | Precip | Speed | Dir | Gust | Dir | Humidity | Pressure | Solar | Snow | Temperature (Deg F) | Moisture (%) | |||||||||
| Date Time (MST) | (F) | (in) | (mph) | (deg) | (mph) | (deg) | (%) | (Mbars) | (w/m^2) | (in) | 5cm | 10cm | 20cm | 50cm | 1m | 5cm | 10cm | 20cm | 50cm | 1m |
| 2026-08-30 00:00:00 | 55.17 | 0.00 | 3.52 | 218 | 5.96 | 227 | 85.3 | 871.0 | 0.0 | 0.0 | 66.38 | 70.34 | 72.32 | 70.34 | 71.42 | 6.9% | 14.4% | 15.9% | 3.4% | 0.0% |
| 2026-08-30 01:00:00 | 51.96 | 0.00 | 4.97 | 200 | 6.83 | 161 | 86.7 | 871.0 | 0.0 | 0.0 | 65.30 | 69.44 | 71.96 | 70.34 | 71.42 | 6.9% | 14.4% | 16.0% | 3.3% | 0.0% |
| 2026-08-30 02:00:00 | 54.27 | 0.00 | 5.19 | 197 | 9.69 | 304 | 81.3 | 871.0 | 0.0 | 0.0 | 64.40 | 68.54 | 71.78 | 70.52 | 71.42 | 6.8% | 14.4% | 15.9% | 3.3% | 0.0% |
| 2026-08-30 03:00:00 | 51.44 | 0.00 | 4.19 | 170 | 7.70 | 161 | 84.5 | 871.0 | 0.0 | 0.0 | 63.86 | 68.00 | 71.60 | 70.52 | 71.42 | 6.8% | 14.3% | 16.0% | 3.4% | 0.0% |
| 2026-08-30 04:00:00 | 51.58 | 0.00 | 3.81 | 167 | 6.83 | 174 | 87.2 | 871.0 | 0.0 | 0.0 | 63.50 | 67.46 | 71.24 | 70.52 | 71.24 | 6.8% | 14.2% | 15.9% | 3.3% | 0.0% |
| 2026-08-30 05:00:00 | 53.37 | 0.00 | 5.27 | 231 | 7.33 | 242 | 84.7 | 871.0 | 0.0 | 0.0 | 63.32 | 66.92 | 70.88 | 70.52 | 71.24 | 6.8% | 14.2% | 15.9% | 3.3% | 0.0% |
| 2026-08-30 06:00:00 | 55.06 | 0.00 | 0.53 | 232 | 9.07 | 299 | 76.3 | 872.0 | 20.9 | 0.0 | 63.68 | 66.74 | 70.70 | 70.52 | 71.24 | 6.9% | 14.2% | 15.8% | 3.3% | 0.0% |
| 2026-08-30 07:00:00 | 58.05 | 0.00 | 0.54 | 202 | 5.72 | 223 | 75.1 | 872.0 | 137.1 | 0.0 | 63.68 | 66.56 | 70.52 | 70.34 | 71.06 | 6.8% | 14.2% | 15.8% | 3.3% | 0.0% |
| 2026-08-30 08:00:00 | 64.51 | 0.00 | 2.41 | 288 | 4.35 | 323 | 61.3 | 872.0 | 162.0 | 0.2 | 65.12 | 66.56 | 70.34 | 70.34 | 70.88 | 6.8% | 14.1% | 15.8% | 3.3% | 0.0% |
| 2026-08-30 09:00:00 | 72.66 | 0.00 | 7.71 | 360 | 10.44 | 355 | 45.6 | 872.0 | 675.9 | 0.5 | 67.10 | 67.28 | 69.98 | 70.34 | 70.88 | 6.9% | 14.2% | 15.8% | 3.4% | 0.0% |
| 2026-08-30 10:00:00 | 74.05 | 0.00 | 7.16 | 10 | 12.92 | 334 | 40.1 | 872.0 | 722.4 | 0.6 | 70.70 | 68.54 | 69.80 | 70.34 | 70.70 | 7.0% | 14.2% | 15.8% | 3.4% | 0.0% |
| 2026-08-30 11:00:00 | 73.15 | 0.00 | 11.99 | 317 | 19.26 | 318 | 42.7 | 873.0 | 200.2 | 0.2 | 75.02 | 70.70 | 69.80 | 70.16 | 70.70 | 7.2% | 14.3% | 15.8% | 3.3% | 0.0% |
| 2026-08-30 12:00:00 | 62.06 | 0.00 | 31.21 | 333 | 46.46 | 331 | 54.9 | 875.0 | 182.3 | 0.0 | 75.02 | 72.68 | 69.80 | 69.98 | 70.52 | 7.4% | 14.5% | 15.9% | 3.4% | 0.0% |
| 2026-08-30 13:00:00 | 63.86 | 0.00 | 13.07 | 342 | 38.01 | 328 | 58.4 | 874.0 | 854.0 | 0.3 | 73.58 | 72.86 | 69.98 | 69.98 | 70.52 | 7.2% | 14.4% | 15.8% | 3.3% | 0.0% |
| 2026-08-30 14:00:00 | 68.86 | 0.00 | 5.63 | 351 | 19.37 | 0 | 50.4 | 873.0 | 780.1 | 0.4 | 75.92 | 73.22 | 70.34 | 69.98 | 70.34 | 7.4% | 14.4% | 15.9% | 3.3% | 0.0% |
| 2026-08-30 15:00:00 | 72.30 | 0.00 | 1.70 | 259 | 8.82 | 101 | 43.0 | 873.0 | 216.8 | 0.4 | 78.80 | 74.48 | 70.52 | 69.98 | 70.34 | 7.4% | 14.5% | 15.9% | 3.3% | 0.0% |
| 2026-08-30 16:00:00 | 73.94 | 0.00 | 4.75 | 338 | 15.40 | 4 | 41.0 | 873.0 | 458.5 | 0.4 | 79.34 | 75.02 | 70.70 | 69.80 | 70.34 | 7.6% | 14.4% | 15.9% | 3.3% | 0.0% |
| 2026-08-30 17:00:00 | 70.43 | 0.00 | 12.34 | 320 | 18.25 | 344 | 40.1 | 873.0 | 285.5 | 0.2 | 77.00 | 75.02 | 70.88 | 69.80 | 70.34 | 7.4% | 14.5% | 15.9% | 3.3% | 0.0% |
| 2026-08-30 18:00:00 | 67.12 | 0.00 | 8.63 | 329 | 16.15 | 332 | 44.3 | 874.0 | 116.5 | 0.2 | 74.66 | 74.30 | 71.24 | 69.80 | 70.52 | 7.4% | 14.4% | 15.9% | 3.3% | 0.0% |
| 2026-08-30 19:00:00 | 60.46 | 0.00 | 5.71 | 335 | 11.55 | 315 | 57.8 | 874.0 | 0.0 | 0.1 | 71.96 | 73.40 | 71.42 | 69.80 | 70.52 | 7.3% | 14.4% | 15.9% | 3.3% | 0.0% |
| 2026-08-30 20:00:00 | 57.74 | 0.00 | 2.74 | 247 | 5.22 | 343 | 65.6 | 874.0 | 0.0 | 0.0 | 69.08 | 72.14 | 71.42 | 69.80 | 70.52 | 7.1% | 14.4% | 15.9% | 3.3% | 0.0% |
| 2026-08-30 21:00:00 | 52.27 | 0.00 | 5.23 | 162 | 6.96 | 150 | 77.5 | 875.0 | 0.0 | 0.0 | 66.92 | 70.70 | 71.42 | 69.80 | 70.52 | 7.0% | 14.4% | 15.9% | 3.3% | 0.0% |
| 2026-08-30 22:00:00 | 51.19 | 0.00 | 4.07 | 167 | 7.08 | 165 | 83.3 | 875.0 | 0.0 | 0.0 | 65.30 | 69.62 | 71.42 | 69.80 | 70.70 | 6.9% | 14.3% | 15.9% | 3.3% | 0.0% |
| 2026-08-30 23:00:00 | 49.77 | 0.00 | 6.01 | 147 | 9.19 | 164 | 83.2 | 874.0 | 0.0 | 0.0 | 63.86 | 68.54 | 71.24 | 69.80 | 70.70 | 6.9% | 14.2% | 15.9% | 3.3% | 0.0% |